Time;durP1;ratioP1;P1;durP2;ratioP2;P2;SDS_P1;SDS_P2;PMS_P1;PMS_P2;Temp;Humidity;BMP_temperature;BMP_pressure;BME280_temperature;BME280_humidity;BME280_pressure;Samples;Min_cycle;Max_cycle;Signal;HPM_P1;HPM_P2
2022/01/14 00:00:51;;;;;;;0.30;0.10;;;-2.40;99.90;;;;;;5081359;28;20201;-86
2022/01/14 00:03:18;;;;;;;0.30;0.10;;;-2.40;99.90;;;;;;5090110;28;20695;-85
2022/01/14 00:05:45;;;;;;;0.30;0.20;;;-2.40;99.90;;;;;;5088396;28;20257;-85
2022/01/14 00:08:11;;;;;;;0.30;0.20;;;-2.50;99.90;;;;;;5074992;28;20190;-85
2022/01/14 00:10:41;;;;;;;0.30;0.10;;;-2.50;99.90;;;;;;5074839;28;20198;-85
2022/01/14 00:13:26;;;;;;;0.30;0.10;;;-2.50;99.90;;;;;;5090497;28;20198;-85
2022/01/14 00:15:54;;;;;;;0.35;0.20;;;-2.50;99.90;;;;;;5087767;28;20210;-86
2022/01/14 00:18:21;;;;;;;0.30;0.10;;;-2.50;99.90;;;;;;5097401;28;20223;-85
2022/01/14 00:20:48;;;;;;;0.30;0.20;;;-2.50;99.90;;;;;;5095010;28;20350;-85
2022/01/14 00:23:17;;;;;;;0.30;0.20;;;-2.50;99.90;;;;;;5096719;28;20213;-86
2022/01/14 00:34:06;;;;;;;0.35;0.25;;;-2.50;99.90;;;;;;5063250;28;20672;-85
2022/01/14 00:36:33;;;;;;;0.30;0.10;;;-2.60;99.90;;;;;;5076377;28;20705;-86
2022/01/14 00:39:00;;;;;;;0.30;0.10;;;-2.60;99.90;;;;;;5091888;28;20237;-86
2022/01/14 00:41:27;;;;;;;1.45;1.35;;;-2.60;99.90;;;;;;5089443;28;20193;-87
2022/01/14 00:44:00;;;;;;;0.30;0.10;;;-2.50;99.90;;;;;;5090452;28;20787;-86
2022/01/14 00:46:29;;;;;;;1.25;1.00;;;-2.50;99.90;;;;;;5087609;28;20225;-85
2022/01/14 00:48:56;;;;;;;2.25;2.15;;;-2.50;99.90;;;;;;5092135;28;20192;-85
2022/01/14 00:51:23;;;;;;;0.30;0.10;;;-2.50;99.90;;;;;;5081349;28;20205;-86
2022/01/14 00:53:50;;;;;;;1.45;1.45;;;-2.50;99.90;;;;;;5084009;28;20529;-86
2022/01/14 00:56:26;;;;;;;0.30;0.10;;;-2.50;99.90;;;;;;5091311;28;20731;-87
2022/01/14 00:59:14;;;;;;;1.77;1.55;;;-2.50;99.90;;;;;;5071360;28;20619;-85
2022/01/14 01:01:43;;;;;;;0.30;0.10;;;-2.50;99.90;;;;;;5060556;28;20210;-86
2022/01/14 01:04:11;;;;;;;0.30;0.10;;;-2.60;99.90;;;;;;5059801;28;20222;-85
2022/01/14 01:06:38;;;;;;;0.30;0.20;;;-2.50;99.90;;;;;;5059804;28;20194;-85
2022/01/14 01:09:10;;;;;;;0.30;0.10;;;-2.60;99.90;;;;;;5052087;28;20244;-84
2022/01/14 01:11:39;;;;;;;0.30;0.20;;;-2.50;99.90;;;;;;5062501;28;20556;-85
2022/01/14 01:14:11;;;;;;;0.30;0.10;;;-2.50;99.90;;;;;;5052378;28;20194;-85
2022/01/14 01:16:38;;;;;;;0.30;0.10;;;-2.50;99.90;;;;;;5056912;28;20198;-85
2022/01/14 01:19:07;;;;;;;0.30;0.10;;;-2.60;99.90;;;;;;5059273;28;20194;-85
2022/01/14 01:21:35;;;;;;;0.30;0.10;;;-2.50;99.90;;;;;;5071122;28;20325;-86
2022/01/14 01:24:02;;;;;;;0.30;0.10;;;-2.50;99.90;;;;;;5068227;28;20231;-84
2022/01/14 01:26:32;;;;;;;0.30;0.10;;;-2.50;99.90;;;;;;5067836;28;20596;-85
2022/01/14 01:29:02;;;;;;;0.30;0.10;;;-2.50;99.90;;;;;;5052604;28;20256;-86
2022/01/14 01:31:39;;;;;;;0.30;0.10;;;-2.40;99.90;;;;;;5062160;28;20198;-86
2022/01/14 01:34:10;;;;;;;0.30;0.10;;;-2.50;99.90;;;;;;5052887;28;20284;-84
2022/01/14 01:36:38;;;;;;;0.30;0.10;;;-2.50;99.90;;;;;;5067320;28;20249;-85
2022/01/14 01:39:07;;;;;;;0.30;0.10;;;-2.40;99.90;;;;;;5053964;28;20236;-86
2022/01/14 01:41:36;;;;;;;0.30;0.10;;;-2.40;99.90;;;;;;5050558;28;20202;-85
2022/01/14 01:44:06;;;;;;;0.30;0.10;;;-2.50;99.90;;;;;;5050290;28;20762;-86
2022/01/14 01:46:37;;;;;;;0.30;0.10;;;-2.40;99.90;;;;;;5051317;28;20213;-85
2022/01/14 01:49:04;;;;;;;0.30;0.20;;;-2.50;99.90;;;;;;5061232;28;20194;-86
2022/01/14 01:51:33;;;;;;;0.30;0.10;;;-2.50;99.90;;;;;;5077225;28;20220;-84
2022/01/14 01:54:00;;;;;;;0.30;0.10;;;-2.60;99.90;;;;;;5093977;28;20194;-85
2022/01/14 01:56:26;;;;;;;0.30;0.10;;;-2.60;99.90;;;;;;5073920;28;20223;-85
2022/01/14 01:58:56;;;;;;;0.40;0.35;;;-2.60;99.90;;;;;;5109374;28;20233;-85
2022/01/14 02:01:24;;;;;;;0.30;0.10;;;-2.60;99.90;;;;;;5092009;28;20192;-86
2022/01/14 02:03:53;;;;;;;0.30;0.10;;;-2.70;99.90;;;;;;5089198;28;20216;-86
2022/01/14 02:06:21;;;;;;;0.30;0.10;;;-2.70;99.90;;;;;;5071890;28;20200;-85
2022/01/14 02:08:50;;;;;;;1.10;1.10;;;-2.70;99.90;;;;;;5070425;28;20721;-85
2022/01/14 02:11:18;;;;;;;0.30;0.10;;;-2.70;99.90;;;;;;5084497;28;20196;-86
2022/01/14 02:13:48;;;;;;;0.30;0.10;;;-2.70;99.90;;;;;;5087434;28;20278;-85
2022/01/14 02:16:31;;;;;;;0.30;0.10;;;-2.70;99.90;;;;;;5090082;28;20200;-85
2022/01/14 02:19:14;;;;;;;0.30;0.10;;;-2.70;99.90;;;;;;5072891;28;20216;-84
2022/01/14 02:27:15;;;;;;;0.30;0.20;;;-2.70;99.90;;;;;;5071293;28;20515;-85
2022/01/14 02:29:42;;;;;;;0.30;0.10;;;-2.70;99.90;;;;;;5083952;28;20275;-86
2022/01/14 02:32:10;;;;;;;0.30;0.17;;;-2.80;99.90;;;;;;5073278;28;20273;-85
2022/01/14 02:34:38;;;;;;;0.30;0.10;;;-2.80;99.90;;;;;;5077659;28;20216;-85
2022/01/14 02:37:07;;;;;;;0.30;0.10;;;-2.80;99.90;;;;;;5082311;28;20641;-85
2022/01/14 02:39:34;;;;;;;0.30;0.10;;;-2.90;99.90;;;;;;5077130;28;20959;-85
2022/01/14 02:42:01;;;;;;;1.02;0.38;;;-2.90;99.90;;;;;;5093314;28;20249;-86
2022/01/14 02:44:30;;;;;;;1.48;1.38;;;-2.90;99.90;;;;;;5092245;28;20256;-86
2022/01/14 02:47:03;;;;;;;0.30;0.10;;;-2.90;99.90;;;;;;5087574;28;20190;-85
2022/01/14 02:49:32;;;;;;;0.30;0.10;;;-2.90;99.90;;;;;;5079156;28;20223;-85
2022/01/14 02:52:02;;;;;;;1.10;1.10;;;-2.90;99.90;;;;;;5094261;28;20208;-84
2022/01/14 02:54:39;;;;;;;0.30;0.10;;;-2.90;99.90;;;;;;5092929;28;20258;-86
2022/01/14 02:57:08;;;;;;;0.30;0.15;;;-2.90;99.90;;;;;;5073968;28;20578;-86
2022/01/14 02:59:38;;;;;;;0.30;0.10;;;-2.90;99.90;;;;;;5078187;28;20232;-86
2022/01/14 03:02:08;;;;;;;0.30;0.10;;;-2.90;99.90;;;;;;5073402;28;20193;-84
2022/01/14 03:04:39;;;;;;;0.30;0.10;;;-2.90;99.90;;;;;;5085680;28;20224;-85
2022/01/14 03:07:08;;;;;;;0.30;0.10;;;-2.80;99.90;;;;;;5092682;28;20227;-85
2022/01/14 03:09:37;;;;;;;3.55;1.85;;;-2.80;99.90;;;;;;5086145;28;20280;-88
2022/01/14 03:12:05;;;;;;;0.30;0.17;;;-2.90;99.90;;;;;;5082365;28;20578;-84
2022/01/14 03:14:32;;;;;;;0.30;0.10;;;-2.90;99.90;;;;;;5072990;28;20773;-85
2022/01/14 03:17:00;;;;;;;0.30;0.10;;;-2.90;99.90;;;;;;5074147;28;20223;-85
2022/01/14 03:19:28;;;;;;;0.30;0.10;;;-2.90;99.90;;;;;;5091367;28;20193;-86
2022/01/14 03:22:05;;;;;;;0.30;0.20;;;-2.90;99.90;;;;;;5079032;28;20198;-86
2022/01/14 03:27:18;;;;;;;0.30;0.10;;;-3.00;99.90;;;;;;5093461;28;20213;-85
2022/01/14 03:29:46;;;;;;;0.30;0.10;;;-3.00;99.90;;;;;;5103820;28;20203;-84
2022/01/14 03:32:13;;;;;;;1.50;1.40;;;-3.00;99.90;;;;;;5110815;28;20200;-85
2022/01/14 03:34:40;;;;;;;0.30;0.10;;;-3.00;99.90;;;;;;5084388;28;20197;-84
2022/01/14 03:37:07;;;;;;;0.30;0.10;;;-3.00;99.90;;;;;;5083355;28;20258;-86
2022/01/14 03:39:34;;;;;;;0.73;0.60;;;-3.00;99.90;;;;;;5090472;28;20692;-84
2022/01/14 03:42:01;;;;;;;0.30;0.10;;;-3.00;99.90;;;;;;5073172;28;20205;-84
2022/01/14 03:44:29;;;;;;;0.30;0.10;;;-3.00;99.90;;;;;;5077808;28;20213;-84
2022/01/14 03:46:56;;;;;;;0.30;0.10;;;-3.00;99.90;;;;;;5073886;28;20197;-84
2022/01/14 03:49:23;;;;;;;0.30;0.10;;;-3.00;99.90;;;;;;5079060;28;20615;-83
2022/01/14 03:51:50;;;;;;;0.30;0.10;;;-3.00;99.90;;;;;;5075374;28;20185;-83
2022/01/14 03:54:17;;;;;;;0.30;0.10;;;-3.00;99.90;;;;;;5081576;28;20197;-85
2022/01/14 03:56:44;;;;;;;0.30;0.17;;;-3.00;99.90;;;;;;5086757;28;20621;-85
2022/01/14 03:59:11;;;;;;;0.30;0.10;;;-3.00;99.90;;;;;;5086986;28;20321;-86
2022/01/14 04:01:39;;;;;;;0.40;0.30;;;-3.10;99.90;;;;;;5092198;28;20251;-84
2022/01/14 04:04:06;;;;;;;0.30;0.10;;;-3.10;99.90;;;;;;5092721;28;20244;-84
2022/01/14 04:06:33;;;;;;;0.30;0.10;;;-3.10;99.90;;;;;;5103646;28;20189;-84
2022/01/14 04:09:00;;;;;;;0.30;0.10;;;-3.00;99.90;;;;;;5104595;28;20189;-85
2022/01/14 04:11:29;;;;;;;0.30;0.10;;;-3.00;99.90;;;;;;5104983;28;20250;-84
2022/01/14 04:14:06;;;;;;;0.30;0.20;;;-3.10;99.90;;;;;;5103841;28;20197;-85
2022/01/14 04:16:32;;;;;;;1.10;1.00;;;-3.00;99.90;;;;;;5093279;28;20200;-87
2022/01/14 04:19:01;;;;;;;0.30;0.10;;;-3.00;99.90;;;;;;5082468;28;20297;-87
2022/01/14 04:21:29;;;;;;;0.30;0.10;;;-3.00;99.90;;;;;;5082346;28;20568;-88
2022/01/14 04:23:56;;;;;;;0.30;0.10;;;-3.00;99.90;;;;;;5080589;28;20212;-87
2022/01/14 04:26:23;;;;;;;0.30;0.10;;;-3.00;99.90;;;;;;5090311;28;20270;-85
2022/01/14 04:28:50;;;;;;;0.30;0.10;;;-3.00;99.90;;;;;;5091168;28;20197;-86
2022/01/14 04:31:17;;;;;;;0.30;0.10;;;-3.00;99.90;;;;;;5088086;28;20258;-84
2022/01/14 04:33:44;;;;;;;0.30;0.10;;;-3.00;99.90;;;;;;5091055;28;20205;-84
2022/01/14 04:36:13;;;;;;;0.30;0.10;;;-3.00;99.90;;;;;;5087755;28;20247;-85
2022/01/14 04:38:40;;;;;;;0.45;0.45;;;-3.10;99.90;;;;;;5073376;28;20193;-85
2022/01/14 04:41:08;;;;;;;2.10;2.05;;;-3.20;99.90;;;;;;5090414;28;20208;-87
2022/01/14 04:43:35;;;;;;;0.85;0.85;;;-3.20;99.90;;;;;;5085168;28;20220;-85
2022/01/14 04:46:24;;;;;;;0.30;0.10;;;-3.20;99.90;;;;;;5077333;28;20794;-84
2022/01/14 04:48:50;;;;;;;1.17;0.52;;;-3.20;99.90;;;;;;5086877;28;20197;-85
2022/01/14 04:51:20;;;;;;;0.30;0.10;;;-3.20;99.90;;;;;;5071162;28;20856;-85
2022/01/14 04:53:48;;;;;;;0.50;0.45;;;-3.20;99.90;;;;;;5077105;28;20196;-86
2022/01/14 04:56:15;;;;;;;0.65;0.47;;;-3.20;99.90;;;;;;5084210;28;20248;-87
2022/01/14 04:58:42;;;;;;;1.00;1.00;;;-3.20;99.90;;;;;;5091658;28;20237;-86
2022/01/14 05:01:09;;;;;;;0.30;0.20;;;-3.20;99.90;;;;;;5101195;28;20209;-87
2022/01/14 05:03:36;;;;;;;0.30;0.10;;;-3.30;99.90;;;;;;5111463;28;20277;-86
2022/01/14 05:06:05;;;;;;;0.30;0.17;;;-3.20;99.90;;;;;;5103554;28;20181;-86
2022/01/14 05:08:37;;;;;;;0.30;0.10;;;-3.20;99.90;;;;;;5109562;28;20221;-86
2022/01/14 05:11:23;;;;;;;0.30;0.10;;;-3.20;99.90;;;;;;5092224;28;20274;-85
2022/01/14 05:13:50;;;;;;;0.50;0.40;;;-3.20;99.90;;;;;;5091688;28;20197;-88
2022/01/14 05:16:17;;;;;;;1.45;1.40;;;-3.10;99.90;;;;;;5077687;28;20648;-85
2022/01/14 05:18:44;;;;;;;0.30;0.10;;;-3.10;99.90;;;;;;5090810;28;20197;-87
2022/01/14 05:21:13;;;;;;;1.67;1.58;;;-3.00;99.90;;;;;;5087087;28;20255;-86
2022/01/14 05:23:43;;;;;;;0.30;0.20;;;-3.00;99.90;;;;;;5079594;28;20203;-86
2022/01/14 05:26:11;;;;;;;0.30;0.10;;;-3.00;99.90;;;;;;5091965;28;20224;-90
2022/01/14 05:28:38;;;;;;;0.40;0.38;;;-3.00;99.90;;;;;;5082624;28;20228;-86
2022/01/14 05:31:05;;;;;;;0.30;0.10;;;-3.00;99.90;;;;;;5086355;28;20246;-89
2022/01/14 05:33:32;;;;;;;0.73;0.73;;;-3.00;99.90;;;;;;5081366;28;20213;-89
2022/01/14 05:35:59;;;;;;;0.30;0.10;;;-3.00;99.90;;;;;;5076261;28;20248;-94
2022/01/14 05:38:26;;;;;;;0.30;0.10;;;-3.00;99.90;;;;;;5078119;28;20209;-88
2022/01/14 05:40:55;;;;;;;0.30;0.10;;;-3.00;99.90;;;;;;5081080;28;20258;-88
2022/01/14 05:43:22;;;;;;;0.30;0.10;;;-3.00;99.90;;;;;;5087350;28;20777;-88
2022/01/14 05:45:49;;;;;;;0.30;0.10;;;-3.00;99.90;;;;;;5077742;28;20309;-88
2022/01/14 05:48:15;;;;;;;1.48;1.38;;;-3.00;99.90;;;;;;5082202;28;20221;-87
2022/01/14 05:50:42;;;;;;;1.67;1.58;;;-3.00;99.90;;;;;;5089460;28;20224;-88
2022/01/14 05:53:10;;;;;;;0.30;0.10;;;-3.00;99.90;;;;;;5084709;28;20197;-87
2022/01/14 05:55:37;;;;;;;0.30;0.10;;;-3.10;99.90;;;;;;5080546;28;20224;-88
2022/01/14 05:58:05;;;;;;;3.53;1.90;;;-3.10;99.90;;;;;;5084444;28;20296;-88
2022/01/14 06:00:32;;;;;;;0.30;0.10;;;-3.10;99.90;;;;;;5077005;28;20204;-87
2022/01/14 06:02:59;;;;;;;0.30;0.10;;;-3.20;99.90;;;;;;5086903;28;20208;-86
2022/01/14 06:05:26;;;;;;;0.80;0.75;;;-3.10;99.90;;;;;;5089123;28;20310;-87
2022/01/14 06:07:53;;;;;;;0.30;0.10;;;-3.10;99.90;;;;;;5085700;28;20197;-88
2022/01/14 06:10:22;;;;;;;2.45;2.17;;;-3.20;99.90;;;;;;5083140;28;20573;-87
2022/01/14 06:12:50;;;;;;;0.30;0.10;;;-3.10;99.90;;;;;;5085911;28;20301;-89
2022/01/14 06:15:18;;;;;;;0.82;0.70;;;-3.10;99.90;;;;;;5085302;28;20312;-88
2022/01/14 06:17:45;;;;;;;0.30;0.10;;;-3.10;99.90;;;;;;5089632;28;20598;-87
2022/01/14 06:20:13;;;;;;;0.30;0.10;;;-3.20;99.90;;;;;;5085472;28;20189;-87
2022/01/14 06:22:40;;;;;;;0.85;0.57;;;-3.20;99.90;;;;;;5080432;28;20194;-90
2022/01/14 06:25:09;;;;;;;0.30;0.10;;;-3.20;99.90;;;;;;5088465;28;20220;-88
2022/01/14 06:27:37;;;;;;;0.30;0.10;;;-3.30;99.90;;;;;;5085638;28;20605;-86
2022/01/14 06:30:07;;;;;;;1.75;1.65;;;-3.30;99.90;;;;;;5090011;28;20200;-88
2022/01/14 06:32:41;;;;;;;0.30;0.10;;;-3.20;99.90;;;;;;5086000;28;20196;-88
2022/01/14 06:35:09;;;;;;;0.30;0.10;;;-3.30;99.90;;;;;;5085270;28;20196;-89
2022/01/14 06:37:36;;;;;;;0.30;0.10;;;-3.20;99.90;;;;;;5093264;28;20230;-88
2022/01/14 06:40:03;;;;;;;0.40;0.32;;;-3.20;99.90;;;;;;5103079;28;20197;-89
2022/01/14 06:42:30;;;;;;;0.30;0.10;;;-3.20;99.90;;;;;;5098612;28;20254;-89
2022/01/14 06:44:57;;;;;;;0.30;0.10;;;-3.10;99.90;;;;;;5096071;28;20221;-88
2022/01/14 06:47:24;;;;;;;0.30;0.20;;;-3.10;99.90;;;;;;5086838;28;20201;-88
2022/01/14 06:49:52;;;;;;;0.30;0.10;;;-3.00;99.90;;;;;;5085790;28;20607;-87
2022/01/14 06:52:19;;;;;;;0.30;0.10;;;-3.00;99.90;;;;;;5081559;28;20613;-88
2022/01/14 06:54:47;;;;;;;0.30;0.10;;;-3.00;99.90;;;;;;5080489;28;20536;-91
2022/01/14 06:57:14;;;;;;;0.30;0.20;;;-3.00;99.90;;;;;;5079373;28;20661;-89
2022/01/14 06:59:42;;;;;;;0.30;0.20;;;-3.00;99.90;;;;;;5082466;28;20255;-90
2022/01/14 07:02:10;;;;;;;1.88;1.88;;;-2.90;99.90;;;;;;5074705;28;20553;-88
2022/01/14 07:04:37;;;;;;;0.30;0.10;;;-2.80;99.90;;;;;;5084682;28;20217;-88
2022/01/14 07:07:06;;;;;;;0.40;0.40;;;-2.80;99.90;;;;;;5087814;28;20337;-88
2022/01/14 07:09:34;;;;;;;0.30;0.20;;;-2.80;99.90;;;;;;5077763;28;20718;-88
2022/01/14 07:12:02;;;;;;;1.85;0.85;;;-2.80;99.90;;;;;;5070576;28;20193;-88
2022/01/14 07:14:30;;;;;;;0.30;0.10;;;-2.70;99.90;;;;;;5077432;28;20312;-88
2022/01/14 07:16:57;;;;;;;0.30;0.10;;;-2.70;99.90;;;;;;5089056;28;20228;-88
2022/01/14 07:19:26;;;;;;;0.30;0.10;;;-2.70;99.90;;;;;;5085544;28;20227;-88
2022/01/14 07:21:53;;;;;;;0.30;0.10;;;-2.70;99.90;;;;;;5073694;28;20194;-88
2022/01/14 07:24:21;;;;;;;0.30;0.10;;;-2.70;99.90;;;;;;5073654;28;20320;-88
2022/01/14 07:26:50;;;;;;;0.30;0.10;;;-2.70;99.90;;;;;;5091116;28;20766;-88
2022/01/14 07:29:17;;;;;;;0.30;0.10;;;-2.70;99.90;;;;;;5091292;28;20700;-88
2022/01/14 07:31:44;;;;;;;0.30;0.10;;;-2.70;99.90;;;;;;5088280;28;20591;-88
2022/01/14 07:34:11;;;;;;;1.75;1.65;;;-2.60;99.90;;;;;;5089301;28;20689;-89
2022/01/14 07:36:38;;;;;;;0.30;0.10;;;-2.50;99.90;;;;;;5085765;28;20201;-87
2022/01/14 07:39:06;;;;;;;0.30;0.20;;;-2.50;99.90;;;;;;5084945;28;20541;-88
2022/01/14 07:41:34;;;;;;;0.30;0.10;;;-2.50;99.90;;;;;;5089293;28;20246;-88
2022/01/14 07:44:01;;;;;;;0.30;0.10;;;-2.50;99.90;;;;;;5083662;28;20658;-87
2022/01/14 07:46:28;;;;;;;0.30;0.10;;;-2.40;99.90;;;;;;5081717;28;20227;-88
2022/01/14 07:48:55;;;;;;;1.40;1.30;;;-2.40;99.90;;;;;;5091280;28;20291;-87
2022/01/14 07:51:23;;;;;;;0.30;0.10;;;-2.40;99.90;;;;;;5088036;28;20259;-88
2022/01/14 07:53:50;;;;;;;0.80;0.75;;;-2.40;99.90;;;;;;5086974;28;20197;-87
2022/01/14 07:56:17;;;;;;;0.30;0.17;;;-2.40;99.90;;;;;;5075361;28;20225;-88
2022/01/14 07:58:45;;;;;;;0.40;0.30;;;-2.30;99.90;;;;;;5081125;28;20286;-88
2022/01/14 08:01:12;;;;;;;0.30;0.10;;;-2.20;99.90;;;;;;5076474;28;20208;-89
2022/01/14 08:03:39;;;;;;;0.30;0.10;;;-2.10;99.90;;;;;;5089193;28;20338;-88
2022/01/14 08:06:09;;;;;;;0.30;0.10;;;-2.20;99.90;;;;;;5083673;28;20221;-88
2022/01/14 08:08:36;;;;;;;0.30;0.10;;;-2.10;99.90;;;;;;5088304;28;20272;-88
2022/01/14 08:11:04;;;;;;;0.30;0.10;;;-2.10;99.90;;;;;;5105819;28;20197;-88
2022/01/14 08:13:31;;;;;;;0.30;0.10;;;-2.00;99.90;;;;;;5115303;28;20198;-88
2022/01/14 08:15:59;;;;;;;0.30;0.15;;;-2.00;99.90;;;;;;5101560;28;20197;-88
2022/01/14 08:18:26;;;;;;;1.23;1.20;;;-2.00;99.90;;;;;;5091630;28;20208;-88
2022/01/14 08:20:53;;;;;;;1.08;0.98;;;-2.00;99.90;;;;;;5074888;28;20298;-88
2022/01/14 08:23:20;;;;;;;0.30;0.10;;;-1.90;99.90;;;;;;5076203;28;20204;-89
2022/01/14 08:25:47;;;;;;;2.45;2.05;;;-1.90;99.90;;;;;;5073392;28;20221;-87
2022/01/14 08:28:14;;;;;;;0.30;0.10;;;-1.90;99.90;;;;;;5072086;28;20209;-88
2022/01/14 08:30:41;;;;;;;0.30;0.10;;;-1.80;99.90;;;;;;5085744;28;20254;-88
2022/01/14 08:33:09;;;;;;;0.30;0.10;;;-1.70;99.90;;;;;;5082602;28;20206;-88
2022/01/14 08:35:37;;;;;;;0.30;0.10;;;-1.70;99.90;;;;;;5074094;28;20198;-88
2022/01/14 08:38:04;;;;;;;0.30;0.10;;;-1.70;99.90;;;;;;5071304;28;20225;-88
2022/01/14 08:40:31;;;;;;;0.30;0.10;;;-1.70;99.90;;;;;;5090963;28;20258;-88
2022/01/14 08:42:58;;;;;;;0.30;0.20;;;-1.60;99.90;;;;;;5090532;28;20556;-88
2022/01/14 08:45:27;;;;;;;0.30;0.10;;;-1.60;99.90;;;;;;5073917;28;20248;-94
2022/01/14 08:47:55;;;;;;;0.30;0.10;;;-1.50;99.90;;;;;;5087387;28;20225;-88
2022/01/14 08:50:26;;;;;;;0.30;0.20;;;-1.40;99.90;;;;;;5076677;28;20245;-88
2022/01/14 08:52:53;;;;;;;0.30;0.10;;;-1.40;99.90;;;;;;5078664;28;20197;-88
2022/01/14 08:55:21;;;;;;;0.30;0.10;;;-1.20;99.90;;;;;;5079552;28;20197;-87
2022/01/14 08:57:49;;;;;;;0.30;0.10;;;-1.20;99.90;;;;;;5090020;28;20681;-88
2022/01/14 09:00:17;;;;;;;0.80;0.47;;;-1.20;99.90;;;;;;5073943;28;20252;-88
2022/01/14 09:02:45;;;;;;;0.30;0.10;;;-1.20;99.90;;;;;;5076694;28;20225;-88
2022/01/14 09:05:12;;;;;;;0.30;0.10;;;-1.10;99.90;;;;;;5078498;28;20212;-88
2022/01/14 09:07:41;;;;;;;0.30;0.17;;;-1.10;99.90;;;;;;5082682;28;20274;-88
2022/01/14 09:10:09;;;;;;;1.70;0.85;;;-1.10;99.90;;;;;;5087675;28;20193;-88
2022/01/14 09:12:37;;;;;;;0.30;0.10;;;-1.10;99.90;;;;;;5073901;28;20194;-88
2022/01/14 09:15:05;;;;;;;0.30;0.10;;;-1.10;99.90;;;;;;5087190;28;20198;-88
2022/01/14 09:17:32;;;;;;;0.30;0.20;;;-1.10;99.90;;;;;;5081417;28;20198;-88
2022/01/14 09:20:01;;;;;;;0.30;0.10;;;-1.10;99.90;;;;;;5089100;28;20250;-88
2022/01/14 09:22:30;;;;;;;0.30;0.10;;;-1.00;99.90;;;;;;5087080;28;20209;-89
2022/01/14 09:24:59;;;;;;;0.40;0.20;;;-1.00;99.90;;;;;;5088104;28;20197;-88
2022/01/14 09:27:28;;;;;;;0.30;0.10;;;-0.90;99.90;;;;;;5089903;28;20247;-88
2022/01/14 09:29:55;;;;;;;0.30;0.10;;;-0.80;99.90;;;;;;5088718;28;20293;-88
2022/01/14 09:32:22;;;;;;;0.30;0.10;;;-0.80;99.90;;;;;;5090379;28;20243;-88
2022/01/14 09:34:50;;;;;;;4.63;2.53;;;-0.80;99.90;;;;;;5087800;28;20230;-88
2022/01/14 09:37:16;;;;;;;0.30;0.10;;;-0.70;99.90;;;;;;5086909;28;20201;-89
2022/01/14 09:39:44;;;;;;;0.40;0.40;;;-0.80;99.90;;;;;;5082114;28;20247;-89
2022/01/14 09:42:13;;;;;;;0.30;0.10;;;-0.70;99.90;;;;;;5070630;28;20225;-91
2022/01/14 09:44:41;;;;;;;0.30;0.10;;;-0.60;99.90;;;;;;5091033;28;20190;-90
2022/01/14 09:47:08;;;;;;;0.30;0.10;;;-0.50;99.90;;;;;;5099827;28;20230;-88
2022/01/14 09:49:36;;;;;;;0.30;0.10;;;-0.50;99.90;;;;;;5088623;28;20522;-89
2022/01/14 09:52:04;;;;;;;0.40;0.30;;;-0.50;99.90;;;;;;5079322;28;20205;-89
2022/01/14 09:54:32;;;;;;;0.30;0.20;;;-0.40;99.90;;;;;;5072058;28;20587;-88
2022/01/14 09:56:59;;;;;;;0.30;0.10;;;-0.40;99.90;;;;;;5077835;28;20229;-88
2022/01/14 09:59:28;;;;;;;0.30;0.10;;;-0.30;99.90;;;;;;5074171;28;20292;-87
2022/01/14 10:01:57;;;;;;;0.40;0.30;;;-0.40;99.90;;;;;;5088117;28;20258;-88
2022/01/14 10:04:24;;;;;;;0.30;0.20;;;-0.20;99.90;;;;;;5088515;28;20193;-89
2022/01/14 10:06:54;;;;;;;0.30;0.10;;;-0.20;99.90;;;;;;5072044;28;20609;-89
2022/01/14 10:09:24;;;;;;;0.30;0.10;;;-0.20;99.90;;;;;;5078294;28;20228;-90
2022/01/14 10:12:04;;;;;;;1.00;1.00;;;-0.10;99.90;;;;;;5075646;28;20222;-87
2022/01/14 10:14:34;;;;;;;0.30;0.10;;;-0.10;99.90;;;;;;5069799;28;20210;-87
2022/01/14 10:17:04;;;;;;;0.30;0.20;;;0.10;99.90;;;;;;5087415;28;20319;-86
2022/01/14 10:19:35;;;;;;;0.30;0.10;;;0.10;99.90;;;;;;5088024;28;20482;-89
2022/01/14 10:22:03;;;;;;;0.40;0.40;;;0.20;99.90;;;;;;5087697;28;20203;-90
2022/01/14 10:24:31;;;;;;;0.30;0.10;;;0.20;99.90;;;;;;5081500;28;20209;-89
2022/01/14 10:27:01;;;;;;;0.30;0.10;;;0.20;99.90;;;;;;5078916;28;20231;-89
2022/01/14 10:29:30;;;;;;;0.30;0.10;;;0.30;99.90;;;;;;5081492;28;20202;-89
2022/01/14 10:32:00;;;;;;;0.30;0.20;;;0.30;99.90;;;;;;5088765;28;20866;-90
2022/01/14 10:34:28;;;;;;;0.30;0.10;;;0.30;99.90;;;;;;5088118;28;20194;-88
2022/01/14 10:37:11;;;;;;;0.30;0.10;;;0.40;99.90;;;;;;5084817;28;20207;-89
2022/01/14 10:39:45;;;;;;;0.30;0.10;;;0.50;99.90;;;;;;5079196;28;20196;-89
2022/01/14 10:42:23;;;;;;;1.05;0.68;;;0.60;99.90;;;;;;5074547;28;20204;-90
2022/01/14 10:44:51;;;;;;;0.30;0.10;;;0.60;99.90;;;;;;5079810;28;20327;-89
2022/01/14 10:47:25;;;;;;;0.30;0.20;;;0.70;99.90;;;;;;5080997;28;20221;-89
2022/01/14 10:49:57;;;;;;;0.30;0.10;;;0.70;99.90;;;;;;5082603;28;20549;-90
2022/01/14 10:52:27;;;;;;;0.30;0.15;;;0.70;99.90;;;;;;5087116;28;20202;-89
2022/01/14 10:54:56;;;;;;;0.30;0.10;;;0.70;99.90;;;;;;5073641;28;20195;-89
2022/01/14 10:57:25;;;;;;;0.43;0.43;;;0.70;99.90;;;;;;5079612;28;20281;-89
2022/01/14 10:59:55;;;;;;;0.30;0.10;;;0.70;99.90;;;;;;5075745;28;20210;-91
2022/01/14 11:02:34;;;;;;;0.30;0.10;;;0.70;99.90;;;;;;5080558;28;20196;-89
2022/01/14 11:05:02;;;;;;;0.40;0.30;;;0.70;99.90;;;;;;5093306;28;20408;-89
2022/01/14 11:07:29;;;;;;;0.30;0.20;;;0.70;99.90;;;;;;5079349;28;20211;-89
2022/01/14 11:09:57;;;;;;;0.30;0.10;;;0.70;99.90;;;;;;5087531;28;20196;-89
2022/01/14 11:12:25;;;;;;;0.30;0.10;;;0.80;99.90;;;;;;5090030;28;20279;-90
2022/01/14 11:14:52;;;;;;;0.30;0.10;;;0.80;99.90;;;;;;5087405;28;20251;-89
2022/01/14 11:17:19;;;;;;;0.30;0.10;;;0.90;99.90;;;;;;5090535;28;20205;-89
2022/01/14 11:19:47;;;;;;;0.30;0.10;;;1.00;99.90;;;;;;5105216;28;20185;-89
2022/01/14 11:24:59;;;;;;;0.30;0.10;;;1.10;99.90;;;;;;5098345;28;20209;-89
2022/01/14 11:27:27;;;;;;;0.30;0.10;;;1.20;99.90;;;;;;5087709;28;20222;-89
2022/01/14 11:29:58;;;;;;;1.55;1.45;;;1.30;99.90;;;;;;5073510;28;20736;-89
2022/01/14 11:32:25;;;;;;;0.30;0.10;;;1.40;99.90;;;;;;5090841;28;20215;-89
2022/01/14 11:34:54;;;;;;;3.30;0.50;;;1.40;99.90;;;;;;5079009;28;20466;-90
2022/01/14 11:37:34;;;;;;;0.40;0.30;;;1.60;99.90;;;;;;5079161;28;20227;-90
2022/01/14 11:40:05;;;;;;;0.30;0.10;;;1.70;99.90;;;;;;5093327;28;20208;-90
2022/01/14 11:42:44;;;;;;;0.30;0.10;;;1.80;99.90;;;;;;5090330;28;20503;-90
2022/01/14 11:45:13;;;;;;;1.33;0.57;;;1.70;99.90;;;;;;5080141;28;20446;-90
2022/01/14 11:48:01;;;;;;;0.65;0.65;;;1.70;99.90;;;;;;5080094;28;20221;-88
2022/01/14 11:50:49;;;;;;;0.30;0.20;;;1.70;99.90;;;;;;5076746;28;20201;-88
2022/01/14 11:53:38;;;;;;;0.30;0.10;;;1.70;99.90;;;;;;5083090;28;20864;-88
2022/01/14 11:56:07;;;;;;;0.30;0.20;;;1.80;99.90;;;;;;5085282;28;20461;-89
2022/01/14 11:58:34;;;;;;;0.52;0.52;;;1.80;99.90;;;;;;5084351;28;20243;-88
2022/01/14 12:01:01;;;;;;;0.38;0.22;;;1.90;99.90;;;;;;5089717;28;20260;-89
2022/01/14 12:03:32;;;;;;;0.30;0.10;;;2.00;99.90;;;;;;5088973;28;20197;-88
2022/01/14 12:06:02;;;;;;;0.43;0.43;;;2.20;99.90;;;;;;5091121;28;20466;-88
2022/01/14 12:08:30;;;;;;;0.30;0.10;;;2.30;99.90;;;;;;5085361;28;20458;-89
2022/01/14 12:11:27;;;;;;;0.30;0.20;;;2.30;99.90;;;;;;5086542;28;20444;-89
2022/01/14 12:14:00;;;;;;;0.30;0.10;;;2.40;99.90;;;;;;4987554;28;20542;-87
2022/01/14 12:16:48;;;;;;;0.47;0.40;;;2.50;99.90;;;;;;5066479;28;20455;-87
2022/01/14 12:19:23;;;;;;;0.30;0.20;;;2.50;99.90;;;;;;5091640;28;20458;-88
2022/01/14 12:22:09;;;;;;;0.40;0.20;;;2.60;99.90;;;;;;5089616;28;20948;-89
2022/01/14 12:24:49;;;;;;;0.30;0.20;;;2.50;99.90;;;;;;5090492;28;20919;-89
2022/01/14 12:27:46;;;;;;;0.30;0.10;;;2.50;99.90;;;;;;5088606;28;20630;-89
2022/01/14 12:30:24;;;;;;;0.40;0.30;;;2.70;99.90;;;;;;5086145;28;20462;-89
2022/01/14 12:32:56;;;;;;;0.30;0.10;;;2.70;99.90;;;;;;5091504;28;20832;-87
2022/01/14 12:35:29;;;;;;;0.30;0.10;;;2.80;99.90;;;;;;5085472;28;20483;-87
2022/01/14 12:37:59;;;;;;;0.40;0.20;;;2.90;99.90;;;;;;5091072;28;20439;-87
2022/01/14 12:40:28;;;;;;;0.30;0.20;;;2.90;99.90;;;;;;5087253;28;20539;-86
2022/01/14 12:42:58;;;;;;;0.30;0.20;;;2.90;99.90;;;;;;5091627;28;20495;-87
2022/01/14 12:45:38;;;;;;;0.30;0.20;;;2.90;99.90;;;;;;5078512;28;20495;-88
2022/01/14 12:48:30;;;;;;;0.30;0.20;;;2.90;99.90;;;;;;5077730;28;20487;-88
2022/01/14 12:51:08;;;;;;;0.30;0.10;;;3.00;99.90;;;;;;5085139;28;20518;-87
2022/01/14 12:53:37;;;;;;;0.30;0.10;;;3.10;99.90;;;;;;5107130;28;20450;-86
2022/01/14 12:56:14;;;;;;;0.30;0.17;;;3.10;99.90;;;;;;5099869;28;20481;-87
2022/01/14 12:58:59;;;;;;;0.30;0.20;;;3.00;99.90;;;;;;5106295;28;20505;-86
2022/01/14 13:01:28;;;;;;;0.30;0.10;;;3.00;99.90;;;;;;5090730;28;20463;-87
2022/01/14 13:03:56;;;;;;;0.30;0.10;;;3.10;99.90;;;;;;5077974;28;20834;-87
2022/01/14 13:06:23;;;;;;;0.30;0.10;;;3.10;99.90;;;;;;5084860;28;20487;-87
2022/01/14 13:08:56;;;;;;;0.30;0.20;;;3.10;99.90;;;;;;5072110;28;20443;-86
2022/01/14 13:11:23;;;;;;;0.63;0.63;;;3.10;99.90;;;;;;5070887;28;20440;-84
2022/01/14 13:14:02;;;;;;;0.30;0.10;;;3.10;99.90;;;;;;5086963;28;20512;-87
2022/01/14 13:16:44;;;;;;;0.30;0.20;;;3.10;99.90;;;;;;5073687;28;20990;-87
2022/01/14 13:19:21;;;;;;;0.30;0.10;;;3.20;99.90;;;;;;5074011;28;20438;-85